Imperial Eagle — V7TK5 — position and weather

sailwx.info

Track history (hours):
 
Tides and Currents Weather Stations Pressure Air Temp Water Temp Dewpoint Dewpoint Depression Visibility Wind Speed Wind Dir Waves Ship Positions

Imperial Eagle

Last reported at 2016-Nov-29 19:30 UTC. Time now 2016-Dec-04 20:21 UTC.
Position N 31°16' E 121°51'.

Length 190 m; draft 12.5 m.

Type: Cargo ship. MMSI: 256759020.

Date/timePositionNaut miles runAvg speedWind from/ knotsBaromVisibWave heightAir tempDewpointWater temp
2016-Nov-29 19:30N 31°16' E 121°51'1212.7
2016-Nov-29 18:33N 31°22' E 121°38'1010.4
2016-Nov-29 17:33N 31°27' E 121°28'5 5.1
2016-Nov-29 16:33N 31°30' E 121°23'0 0.0
2016-Nov-29 15:33N 31°30' E 121°23'0 0.0
2016-Nov-29 14:33N 31°30' E 121°23'0 0.0
2016-Nov-29 13:33N 31°30' E 121°23'0 0.0
2016-Nov-29 12:33N 31°30' E 121°23'0 0.0
2016-Nov-29 11:33N 31°30' E 121°23'0 0.0
2016-Nov-29 10:30N 31°30' E 121°23'0 0.0
2016-Nov-29 09:33N 31°30' E 121°23'0 0.0
2016-Nov-29 08:33N 31°30' E 121°23'0 0.0
2016-Nov-29 07:24N 31°30' E 121°23'0 0.0
2016-Nov-29 06:33N 31°30' E 121°23'0 0.0
2016-Nov-29 05:30N 31°30' E 121°23'0 0.0
2016-Nov-29 04:33N 31°30' E 121°23'0 0.0
2016-Nov-29 03:33N 31°30' E 121°23'0 0.0
2016-Nov-29 02:33N 31°30' E 121°23'0 0.0
2016-Nov-29 01:21N 31°30' E 121°23'0 0.0
2016-Nov-29 00:33N 31°30' E 121°23'0 0.0
2016-Nov-28 23:30N 31°30' E 121°23'0 0.0
2016-Nov-28 22:33N 31°30' E 121°23'0 0.0
2016-Nov-28 21:30N 31°30' E 121°23'0 0.0
2016-Nov-28 20:33N 31°30' E 121°23'0 0.0
2016-Nov-28 19:33N 31°30' E 121°23'0 0.0
2016-Nov-28 18:33N 31°30' E 121°23'0 0.0
2016-Nov-28 17:33N 31°30' E 121°23'0 0.0
2016-Nov-28 16:33N 31°30' E 121°23'1 0.8
2016-Nov-28 15:34N 31°30' E 121°24'1110.5
2016-Nov-28 14:33N 31°24' E 121°34'1211.5
2016-Nov-28 13:34N 31°18' E 121°46'427 8.5
2016-Nov-26 11:24N 38°25' E 121°15'1113.4
2016-Nov-26 10:33N 38°29' E 121°01'1312.5
2016-Nov-26 09:33N 38°40' E 120°53'111 6.9
2016-Nov-25 17:26N 40°15' E 122°06'0 0.0
2016-Nov-25 16:26N 40°15' E 122°06'0 0.0
2016-Nov-25 15:20N 40°15' E 122°06'0 0.0
2016-Nov-25 14:14N 40°15' E 122°06'0 0.0
2016-Nov-25 13:26N 40°15' E 122°06'0 0.0
2016-Nov-25 11:32N 40°15' E 122°06'0 0.0
2016-Nov-25 07:32N 40°15' E 122°06'0 0.0
2016-Nov-25 06:32N 40°15' E 122°06'0 0.0
2016-Nov-25 05:26N 40°15' E 122°06'0 0.0
2016-Nov-25 04:20N 40°15' E 122°06'0 0.0
2016-Nov-25 03:26N 40°15' E 122°06'0 0.0
2016-Nov-25 02:26N 40°15' E 122°06'0 0.0
2016-Nov-25 01:20N 40°15' E 122°06'0 0.0
2016-Nov-24 21:21N 40°15' E 122°06'0 0.0
2016-Nov-24 17:32N 40°15' E 122°06'0 0.0
2016-Nov-24 16:32N 40°15' E 122°06'0 0.0
2016-Nov-24 15:32N 40°15' E 122°06'0 0.0
2016-Nov-24 14:20N 40°15' E 122°06'0 0.0
2016-Nov-24 13:20N 40°15' E 122°06'0 0.0
2016-Nov-24 12:20N 40°15' E 122°06'0 0.0
2016-Nov-24 11:26N 40°15' E 122°06'0 0.0
2016-Nov-24 05:08N 40°15' E 122°06'0 0.0
2016-Nov-24 04:14N 40°15' E 122°06'0 0.0
2016-Nov-24 03:20N 40°15' E 122°06'183 4.3
2016-Nov-22 08:21N 38°48' E 118°37'1012.8
2016-Nov-22 07:33N 38°48' E 118°24'2411.9
2016-Nov-22 05:34N 38°57' E 117°56'9 9.1
2016-Nov-22 04:33N 39°02' E 117°46'1 0.7
2016-Nov-22 03:33N 39°03' E 117°46'0 0.0
2016-Nov-21 21:33N 39°03' E 117°46'0 0.0
2016-Nov-21 17:21N 39°03' E 117°46'0 0.0
2016-Nov-21 14:15N 39°03' E 117°46'0 0.0
2016-Nov-21 13:33N 39°03' E 117°46'0 0.0
2016-Nov-21 12:33N 39°03' E 117°46'0 0.0
2016-Nov-21 11:33N 39°03' E 117°46'0 0.0
2016-Nov-21 10:15N 39°03' E 117°46'0 0.0
2016-Nov-21 08:27N 39°03' E 117°46'0 0.0
2016-Nov-21 07:27N 39°03' E 117°46'0 0.0
2016-Nov-21 05:33N 39°03' E 117°46'0 0.0
2016-Nov-21 04:27N 39°03' E 117°46'0 0.0
2016-Nov-21 02:33N 39°03' E 117°46'0 0.0
2016-Nov-21 00:27N 39°03' E 117°46'0 0.0
2016-Nov-20 22:33N 39°03' E 117°46'0 0.0
2016-Nov-20 21:33N 39°03' E 117°46'0 0.0
2016-Nov-20 17:21N 39°03' E 117°46'0 0.0
2016-Nov-20 16:27N 39°03' E 117°46'0 0.0
2016-Nov-20 14:33N 39°03' E 117°46'0 0.0
2016-Nov-20 13:15N 39°03' E 117°46'0 0.0
2016-Nov-20 12:33N 39°03' E 117°46'0 0.0
2016-Nov-20 09:33N 39°03' E 117°46'0 0.0
2016-Nov-20 08:27N 39°03' E 117°46'0 0.0
2016-Nov-20 07:33N 39°03' E 117°46'0 0.0
2016-Nov-20 06:27N 39°03' E 117°46'0 0.0
2016-Nov-20 05:27N 39°03' E 117°46'0 0.0
2016-Nov-20 04:33N 39°03' E 117°46'0 0.3
2016-Nov-20 03:33N 39°03' E 117°46'15 7.7
2016-Nov-20 01:33N 38°57' E 118°05'0 0.0
2016-Nov-19 23:33N 38°57' E 118°04'0 0.0
2016-Nov-19 22:33N 38°57' E 118°04'3 1.7
2016-Nov-19 20:33N 38°55' E 118°08'9 8.8
2016-Nov-19 19:32N 38°51' E 118°18'  
Track history (hours):
 
Tides and Currents Weather Stations Pressure Air Temp Water Temp Dewpoint Dewpoint Depression Visibility Wind Speed Wind Dir Waves Ship Positions

Imperial Eagle

Last reported at 2016-Nov-29 19:30 UTC. Time now 2016-Dec-04 20:21 UTC.
Position N 31°16' E 121°51'.

Length 190 m; draft 12.5 m.

Type: Cargo ship. MMSI: 256759020.

Date/timePositionNaut miles runAvg speedWind from/ knotsBaromVisibWave heightAir tempDewpointWater temp
2016-Nov-29 19:30N 31°16' E 121°51'1212.7
2016-Nov-29 18:33N 31°22' E 121°38'1010.4
2016-Nov-29 17:33N 31°27' E 121°28'5 5.1
2016-Nov-29 16:33N 31°30' E 121°23'0 0.0
2016-Nov-29 15:33N 31°30' E 121°23'0 0.0
2016-Nov-29 14:33N 31°30' E 121°23'0 0.0
2016-Nov-29 13:33N 31°30' E 121°23'0 0.0
2016-Nov-29 12:33N 31°30' E 121°23'0 0.0
2016-Nov-29 11:33N 31°30' E 121°23'0 0.0
2016-Nov-29 10:30N 31°30' E 121°23'0 0.0
2016-Nov-29 09:33N 31°30' E 121°23'0 0.0
2016-Nov-29 08:33N 31°30' E 121°23'0 0.0
2016-Nov-29 07:24N 31°30' E 121°23'0 0.0
2016-Nov-29 06:33N 31°30' E 121°23'0 0.0
2016-Nov-29 05:30N 31°30' E 121°23'0 0.0
2016-Nov-29 04:33N 31°30' E 121°23'0 0.0
2016-Nov-29 03:33N 31°30' E 121°23'0 0.0
2016-Nov-29 02:33N 31°30' E 121°23'0 0.0
2016-Nov-29 01:21N 31°30' E 121°23'0 0.0
2016-Nov-29 00:33N 31°30' E 121°23'0 0.0
2016-Nov-28 23:30N 31°30' E 121°23'0 0.0
2016-Nov-28 22:33N 31°30' E 121°23'0 0.0
2016-Nov-28 21:30N 31°30' E 121°23'0 0.0
2016-Nov-28 20:33N 31°30' E 121°23'0 0.0
2016-Nov-28 19:33N 31°30' E 121°23'0 0.0
2016-Nov-28 18:33N 31°30' E 121°23'0 0.0
2016-Nov-28 17:33N 31°30' E 121°23'0 0.0
2016-Nov-28 16:33N 31°30' E 121°23'1 0.8
2016-Nov-28 15:34N 31°30' E 121°24'1110.5
2016-Nov-28 14:33N 31°24' E 121°34'1211.5
2016-Nov-28 13:34N 31°18' E 121°46'427 8.5
2016-Nov-26 11:24N 38°25' E 121°15'1113.4
2016-Nov-26 10:33N 38°29' E 121°01'1312.5
2016-Nov-26 09:33N 38°40' E 120°53'111 6.9
2016-Nov-25 17:26N 40°15' E 122°06'0 0.0
2016-Nov-25 16:26N 40°15' E 122°06'0 0.0
2016-Nov-25 15:20N 40°15' E 122°06'0 0.0
2016-Nov-25 14:14N 40°15' E 122°06'0 0.0
2016-Nov-25 13:26N 40°15' E 122°06'0 0.0
2016-Nov-25 11:32N 40°15' E 122°06'0 0.0
2016-Nov-25 07:32N 40°15' E 122°06'0 0.0
2016-Nov-25 06:32N 40°15' E 122°06'0 0.0
2016-Nov-25 05:26N 40°15' E 122°06'0 0.0
2016-Nov-25 04:20N 40°15' E 122°06'0 0.0
2016-Nov-25 03:26N 40°15' E 122°06'0 0.0
2016-Nov-25 02:26N 40°15' E 122°06'0 0.0
2016-Nov-25 01:20N 40°15' E 122°06'0 0.0
2016-Nov-24 21:21N 40°15' E 122°06'0 0.0
2016-Nov-24 17:32N 40°15' E 122°06'0 0.0
2016-Nov-24 16:32N 40°15' E 122°06'0 0.0
2016-Nov-24 15:32N 40°15' E 122°06'0 0.0
2016-Nov-24 14:20N 40°15' E 122°06'0 0.0
2016-Nov-24 13:20N 40°15' E 122°06'0 0.0
2016-Nov-24 12:20N 40°15' E 122°06'0 0.0
2016-Nov-24 11:26N 40°15' E 122°06'0 0.0
2016-Nov-24 05:08N 40°15' E 122°06'0 0.0
2016-Nov-24 04:14N 40°15' E 122°06'0 0.0
2016-Nov-24 03:20N 40°15' E 122°06'183 4.3
2016-Nov-22 08:21N 38°48' E 118°37'1012.8
2016-Nov-22 07:33N 38°48' E 118°24'2411.9
2016-Nov-22 05:34N 38°57' E 117°56'9 9.1
2016-Nov-22 04:33N 39°02' E 117°46'1 0.7
2016-Nov-22 03:33N 39°03' E 117°46'0 0.0
2016-Nov-21 21:33N 39°03' E 117°46'0 0.0
2016-Nov-21 17:21N 39°03' E 117°46'0 0.0
2016-Nov-21 14:15N 39°03' E 117°46'0 0.0
2016-Nov-21 13:33N 39°03' E 117°46'0 0.0
2016-Nov-21 12:33N 39°03' E 117°46'0 0.0
2016-Nov-21 11:33N 39°03' E 117°46'0 0.0
2016-Nov-21 10:15N 39°03' E 117°46'0 0.0
2016-Nov-21 08:27N 39°03' E 117°46'0 0.0
2016-Nov-21 07:27N 39°03' E 117°46'0 0.0
2016-Nov-21 05:33N 39°03' E 117°46'0 0.0
2016-Nov-21 04:27N 39°03' E 117°46'0 0.0
2016-Nov-21 02:33N 39°03' E 117°46'0 0.0
2016-Nov-21 00:27N 39°03' E 117°46'0 0.0
2016-Nov-20 22:33N 39°03' E 117°46'0 0.0
2016-Nov-20 21:33N 39°03' E 117°46'0 0.0
2016-Nov-20 17:21N 39°03' E 117°46'0 0.0
2016-Nov-20 16:27N 39°03' E 117°46'0 0.0
2016-Nov-20 14:33N 39°03' E 117°46'0 0.0
2016-Nov-20 13:15N 39°03' E 117°46'0 0.0
2016-Nov-20 12:33N 39°03' E 117°46'0 0.0
2016-Nov-20 09:33N 39°03' E 117°46'0 0.0
2016-Nov-20 08:27N 39°03' E 117°46'0 0.0
2016-Nov-20 07:33N 39°03' E 117°46'0 0.0
2016-Nov-20 06:27N 39°03' E 117°46'0 0.0
2016-Nov-20 05:27N 39°03' E 117°46'0 0.0
2016-Nov-20 04:33N 39°03' E 117°46'0 0.3
2016-Nov-20 03:33N 39°03' E 117°46'15 7.7
2016-Nov-20 01:33N 38°57' E 118°05'0 0.0
2016-Nov-19 23:33N 38°57' E 118°04'0 0.0
2016-Nov-19 22:33N 38°57' E 118°04'3 1.7
2016-Nov-19 20:33N 38°55' E 118°08'9 8.8
2016-Nov-19 19:32N 38°51' E 118°18'  

Dump ship's entire track history